sensor_id;sensor_type;location;lat;lon;timestamp;P1;durP1;ratioP1;P2;durP2;ratioP2
73266;SDS011;61495;53.400;7.608;2022-12-08T00:01:36;3.17;;;0.88;;
73266;SDS011;61495;53.400;7.608;2022-12-08T00:04:02;2.25;;;1.10;;
73266;SDS011;61495;53.400;7.608;2022-12-08T00:12:16;4.30;;;1.30;;
73266;SDS011;61495;53.400;7.608;2022-12-08T00:14:42;3.75;;;1.67;;
73266;SDS011;61495;53.400;7.608;2022-12-08T00:17:09;5.72;;;1.30;;
73266;SDS011;61495;53.400;7.608;2022-12-08T00:19:35;4.53;;;2.03;;
73266;SDS011;61495;53.400;7.608;2022-12-08T00:22:03;3.92;;;1.33;;
73266;SDS011;61495;53.400;7.608;2022-12-08T00:24:31;5.18;;;1.50;;
73266;SDS011;61495;53.400;7.608;2022-12-08T00:26:59;4.25;;;1.42;;
73266;SDS011;61495;53.400;7.608;2022-12-08T00:29:25;6.38;;;1.77;;
73266;SDS011;61495;53.400;7.608;2022-12-08T00:31:50;4.65;;;1.45;;
73266;SDS011;61495;53.400;7.608;2022-12-08T00:34:15;5.35;;;1.50;;
73266;SDS011;61495;53.400;7.608;2022-12-08T00:36:41;3.85;;;1.60;;
73266;SDS011;61495;53.400;7.608;2022-12-08T00:39:11;4.38;;;1.60;;
73266;SDS011;61495;53.400;7.608;2022-12-08T00:41:37;6.53;;;2.13;;
73266;SDS011;61495;53.400;7.608;2022-12-08T00:44:21;4.43;;;2.47;;
73266;SDS011;61495;53.400;7.608;2022-12-08T00:46:47;5.05;;;1.90;;
73266;SDS011;61495;53.400;7.608;2022-12-08T00:49:13;5.13;;;1.50;;
73266;SDS011;61495;53.400;7.608;2022-12-08T00:51:39;4.00;;;1.42;;
73266;SDS011;61495;53.400;7.608;2022-12-08T00:54:05;4.95;;;1.50;;
73266;SDS011;61495;53.400;7.608;2022-12-08T00:56:31;4.38;;;1.48;;
73266;SDS011;61495;53.400;7.608;2022-12-08T00:58:57;5.63;;;1.33;;
73266;SDS011;61495;53.400;7.608;2022-12-08T01:01:22;2.83;;;1.33;;
73266;SDS011;61495;53.400;7.608;2022-12-08T01:03:48;4.50;;;1.45;;
73266;SDS011;61495;53.400;7.608;2022-12-08T01:06:14;4.75;;;1.63;;
73266;SDS011;61495;53.400;7.608;2022-12-08T01:08:40;5.47;;;1.52;;
73266;SDS011;61495;53.400;7.608;2022-12-08T01:11:06;2.63;;;1.38;;
73266;SDS011;61495;53.400;7.608;2022-12-08T01:13:34;5.05;;;1.58;;
73266;SDS011;61495;53.400;7.608;2022-12-08T01:16:00;4.60;;;1.42;;
73266;SDS011;61495;53.400;7.608;2022-12-08T01:18:26;3.17;;;1.30;;
73266;SDS011;61495;53.400;7.608;2022-12-08T01:20:53;4.03;;;1.15;;
73266;SDS011;61495;53.400;7.608;2022-12-08T01:23:19;2.78;;;1.10;;
73266;SDS011;61495;53.400;7.608;2022-12-08T01:25:44;2.00;;;0.90;;
73266;SDS011;61495;53.400;7.608;2022-12-08T01:28:10;4.20;;;1.10;;
73266;SDS011;61495;53.400;7.608;2022-12-08T01:30:38;2.67;;;0.98;;
73266;SDS011;61495;53.400;7.608;2022-12-08T01:33:04;2.65;;;1.00;;
73266;SDS011;61495;53.400;7.608;2022-12-08T01:35:29;1.92;;;0.68;;
73266;SDS011;61495;53.400;7.608;2022-12-08T01:37:55;2.15;;;0.70;;
73266;SDS011;61495;53.400;7.608;2022-12-08T01:40:20;0.73;;;0.43;;
73266;SDS011;61495;53.400;7.608;2022-12-08T01:42:45;2.13;;;0.43;;
73266;SDS011;61495;53.400;7.608;2022-12-08T01:45:30;2.17;;;0.40;;
73266;SDS011;61495;53.400;7.608;2022-12-08T01:48:01;1.63;;;0.22;;
73266;SDS011;61495;53.400;7.608;2022-12-08T01:50:30;2.47;;;0.43;;
73266;SDS011;61495;53.400;7.608;2022-12-08T01:52:57;0.77;;;0.30;;
73266;SDS011;61495;53.400;7.608;2022-12-08T01:55:28;0.73;;;0.38;;
73266;SDS011;61495;53.400;7.608;2022-12-08T01:57:55;0.98;;;0.45;;
73266;SDS011;61495;53.400;7.608;2022-12-08T02:00:24;0.68;;;0.32;;
73266;SDS011;61495;53.400;7.608;2022-12-08T02:02:54;1.00;;;0.38;;
73266;SDS011;61495;53.400;7.608;2022-12-08T02:05:23;1.13;;;0.43;;
73266;SDS011;61495;53.400;7.608;2022-12-08T02:07:52;1.45;;;0.45;;
73266;SDS011;61495;53.400;7.608;2022-12-08T02:10:20;1.52;;;0.50;;
73266;SDS011;61495;53.400;7.608;2022-12-08T02:12:47;0.95;;;0.40;;
73266;SDS011;61495;53.400;7.608;2022-12-08T02:15:15;2.17;;;0.60;;
73266;SDS011;61495;53.400;7.608;2022-12-08T02:23:25;1.27;;;0.57;;
73266;SDS011;61495;53.400;7.608;2022-12-08T02:28:52;1.48;;;0.68;;
73266;SDS011;61495;53.400;7.608;2022-12-08T02:31:52;1.40;;;0.60;;
73266;SDS011;61495;53.400;7.608;2022-12-08T02:37:55;1.50;;;0.63;;
73266;SDS011;61495;53.400;7.608;2022-12-08T02:40:27;1.55;;;0.60;;
73266;SDS011;61495;53.400;7.608;2022-12-08T02:48:03;1.00;;;0.50;;
73266;SDS011;61495;53.400;7.608;2022-12-08T02:50:29;1.63;;;0.70;;
73266;SDS011;61495;53.400;7.608;2022-12-08T02:52:55;0.93;;;0.47;;
73266;SDS011;61495;53.400;7.608;2022-12-08T02:55:24;1.88;;;0.68;;
73266;SDS011;61495;53.400;7.608;2022-12-08T02:58:00;1.15;;;0.45;;
73266;SDS011;61495;53.400;7.608;2022-12-08T03:00:30;0.65;;;0.38;;
73266;SDS011;61495;53.400;7.608;2022-12-08T03:03:12;2.47;;;0.60;;
73266;SDS011;61495;53.400;7.608;2022-12-08T03:05:55;0.90;;;0.45;;
73266;SDS011;61495;53.400;7.608;2022-12-08T03:14:06;2.03;;;0.77;;
73266;SDS011;61495;53.400;7.608;2022-12-08T03:16:37;1.90;;;0.90;;
73266;SDS011;61495;53.400;7.608;2022-12-08T03:19:12;1.67;;;0.70;;
73266;SDS011;61495;53.400;7.608;2022-12-08T03:21:42;1.88;;;0.60;;
73266;SDS011;61495;53.400;7.608;2022-12-08T03:24:11;1.80;;;0.73;;
73266;SDS011;61495;53.400;7.608;2022-12-08T03:26:49;1.85;;;0.85;;
73266;SDS011;61495;53.400;7.608;2022-12-08T03:29:21;1.05;;;0.60;;
73266;SDS011;61495;53.400;7.608;2022-12-08T03:31:53;1.13;;;0.50;;
73266;SDS011;61495;53.400;7.608;2022-12-08T03:34:22;1.92;;;0.63;;
73266;SDS011;61495;53.400;7.608;2022-12-08T03:36:51;1.05;;;0.45;;
73266;SDS011;61495;53.400;7.608;2022-12-08T03:39:17;2.53;;;0.52;;
73266;SDS011;61495;53.400;7.608;2022-12-08T03:41:42;1.20;;;0.52;;
73266;SDS011;61495;53.400;7.608;2022-12-08T03:44:09;1.13;;;0.50;;
73266;SDS011;61495;53.400;7.608;2022-12-08T03:46:34;1.15;;;0.60;;
73266;SDS011;61495;53.400;7.608;2022-12-08T03:49:00;1.15;;;0.52;;
73266;SDS011;61495;53.400;7.608;2022-12-08T03:51:25;1.48;;;0.60;;
73266;SDS011;61495;53.400;7.608;2022-12-08T03:53:51;1.30;;;0.63;;
73266;SDS011;61495;53.400;7.608;2022-12-08T03:56:33;1.42;;;0.60;;
73266;SDS011;61495;53.400;7.608;2022-12-08T03:59:00;1.67;;;0.80;;
73266;SDS011;61495;53.400;7.608;2022-12-08T04:01:26;1.55;;;0.73;;
73266;SDS011;61495;53.400;7.608;2022-12-08T04:03:51;1.30;;;0.75;;
73266;SDS011;61495;53.400;7.608;2022-12-08T04:06:17;1.95;;;0.60;;
73266;SDS011;61495;53.400;7.608;2022-12-08T04:08:44;1.10;;;0.60;;
73266;SDS011;61495;53.400;7.608;2022-12-08T04:11:09;1.77;;;0.82;;
73266;SDS011;61495;53.400;7.608;2022-12-08T04:13:36;1.35;;;0.73;;
73266;SDS011;61495;53.400;7.608;2022-12-08T04:16:03;1.75;;;0.80;;
73266;SDS011;61495;53.400;7.608;2022-12-08T04:18:29;3.28;;;0.85;;
73266;SDS011;61495;53.400;7.608;2022-12-08T04:20:55;2.08;;;0.85;;
73266;SDS011;61495;53.400;7.608;2022-12-08T04:23:21;2.85;;;0.88;;
73266;SDS011;61495;53.400;7.608;2022-12-08T04:25:47;2.08;;;1.02;;
73266;SDS011;61495;53.400;7.608;2022-12-08T04:28:14;1.02;;;0.60;;
73266;SDS011;61495;53.400;7.608;2022-12-08T04:30:40;1.65;;;0.80;;
73266;SDS011;61495;53.400;7.608;2022-12-08T04:35:31;0.47;;;0.37;;
73266;SDS011;61495;53.400;7.608;2022-12-08T04:37:56;1.35;;;0.60;;
73266;SDS011;61495;53.400;7.608;2022-12-08T04:40:22;1.23;;;0.40;;
73266;SDS011;61495;53.400;7.608;2022-12-08T04:42:47;0.93;;;0.50;;
73266;SDS011;61495;53.400;7.608;2022-12-08T04:45:13;1.35;;;0.40;;
73266;SDS011;61495;53.400;7.608;2022-12-08T04:47:39;1.35;;;0.55;;
73266;SDS011;61495;53.400;7.608;2022-12-08T04:50:05;0.93;;;0.50;;
73266;SDS011;61495;53.400;7.608;2022-12-08T04:52:31;1.77;;;0.65;;
73266;SDS011;61495;53.400;7.608;2022-12-08T04:54:56;2.35;;;0.73;;
73266;SDS011;61495;53.400;7.608;2022-12-08T04:57:22;2.35;;;0.60;;
73266;SDS011;61495;53.400;7.608;2022-12-08T04:59:47;3.42;;;0.73;;
73266;SDS011;61495;53.400;7.608;2022-12-08T05:02:13;1.95;;;1.15;;
73266;SDS011;61495;53.400;7.608;2022-12-08T05:04:38;1.75;;;0.70;;
73266;SDS011;61495;53.400;7.608;2022-12-08T05:07:03;2.03;;;0.70;;
73266;SDS011;61495;53.400;7.608;2022-12-08T05:09:29;1.20;;;0.52;;
73266;SDS011;61495;53.400;7.608;2022-12-08T05:11:54;2.78;;;0.70;;
73266;SDS011;61495;53.400;7.608;2022-12-08T05:14:20;1.25;;;0.50;;
73266;SDS011;61495;53.400;7.608;2022-12-08T05:16:45;1.33;;;0.43;;
73266;SDS011;61495;53.400;7.608;2022-12-08T05:19:11;0.52;;;0.22;;
73266;SDS011;61495;53.400;7.608;2022-12-08T05:21:38;2.03;;;0.52;;
73266;SDS011;61495;53.400;7.608;2022-12-08T05:24:04;1.45;;;0.43;;
73266;SDS011;61495;53.400;7.608;2022-12-08T05:26:30;1.58;;;0.50;;
73266;SDS011;61495;53.400;7.608;2022-12-08T05:28:55;0.80;;;0.30;;
73266;SDS011;61495;53.400;7.608;2022-12-08T05:31:20;1.85;;;0.50;;
73266;SDS011;61495;53.400;7.608;2022-12-08T05:33:47;2.25;;;0.55;;
73266;SDS011;61495;53.400;7.608;2022-12-08T05:36:14;4.28;;;0.93;;
73266;SDS011;61495;53.400;7.608;2022-12-08T05:38:40;3.53;;;0.70;;
73266;SDS011;61495;53.400;7.608;2022-12-08T05:41:06;2.63;;;0.90;;
73266;SDS011;61495;53.400;7.608;2022-12-08T05:43:33;3.10;;;0.88;;
73266;SDS011;61495;53.400;7.608;2022-12-08T05:45:59;1.98;;;0.60;;
73266;SDS011;61495;53.400;7.608;2022-12-08T05:48:24;2.13;;;0.82;;
73266;SDS011;61495;53.400;7.608;2022-12-08T05:50:50;1.75;;;0.73;;
73266;SDS011;61495;53.400;7.608;2022-12-08T05:53:17;2.25;;;0.90;;
73266;SDS011;61495;53.400;7.608;2022-12-08T05:55:43;1.00;;;0.47;;
73266;SDS011;61495;53.400;7.608;2022-12-08T06:00:36;1.23;;;0.52;;
73266;SDS011;61495;53.400;7.608;2022-12-08T06:03:02;3.25;;;0.90;;
73266;SDS011;61495;53.400;7.608;2022-12-08T06:05:27;2.35;;;0.50;;
73266;SDS011;61495;53.400;7.608;2022-12-08T06:07:53;2.70;;;0.82;;
73266;SDS011;61495;53.400;7.608;2022-12-08T06:10:18;0.80;;;0.30;;
73266;SDS011;61495;53.400;7.608;2022-12-08T06:12:44;1.27;;;0.60;;
73266;SDS011;61495;53.400;7.608;2022-12-08T06:15:09;1.02;;;0.45;;
73266;SDS011;61495;53.400;7.608;2022-12-08T06:17:34;2.20;;;0.45;;
73266;SDS011;61495;53.400;7.608;2022-12-08T06:20:00;3.78;;;0.55;;
73266;SDS011;61495;53.400;7.608;2022-12-08T06:24:51;1.90;;;0.50;;
73266;SDS011;61495;53.400;7.608;2022-12-08T06:27:16;1.23;;;0.47;;
73266;SDS011;61495;53.400;7.608;2022-12-08T06:32:07;1.33;;;0.57;;
73266;SDS011;61495;53.400;7.608;2022-12-08T06:34:32;1.45;;;0.50;;
73266;SDS011;61495;53.400;7.608;2022-12-08T06:36:58;1.20;;;0.80;;
73266;SDS011;61495;53.400;7.608;2022-12-08T06:39:23;2.38;;;0.75;;
73266;SDS011;61495;53.400;7.608;2022-12-08T06:41:48;3.00;;;1.00;;
73266;SDS011;61495;53.400;7.608;2022-12-08T06:44:32;2.35;;;1.17;;
73266;SDS011;61495;53.400;7.608;2022-12-08T06:46:58;2.25;;;0.93;;
73266;SDS011;61495;53.400;7.608;2022-12-08T06:49:23;2.95;;;0.93;;
73266;SDS011;61495;53.400;7.608;2022-12-08T06:51:49;3.20;;;1.17;;
73266;SDS011;61495;53.400;7.608;2022-12-08T06:54:14;3.90;;;1.00;;
73266;SDS011;61495;53.400;7.608;2022-12-08T06:56:39;3.60;;;1.40;;
73266;SDS011;61495;53.400;7.608;2022-12-08T06:59:05;2.30;;;0.88;;
73266;SDS011;61495;53.400;7.608;2022-12-08T07:01:30;3.22;;;1.30;;
73266;SDS011;61495;53.400;7.608;2022-12-08T07:03:56;3.10;;;1.35;;
73266;SDS011;61495;53.400;7.608;2022-12-08T07:06:22;7.25;;;1.65;;
73266;SDS011;61495;53.400;7.608;2022-12-08T07:08:48;3.70;;;1.30;;
73266;SDS011;61495;53.400;7.608;2022-12-08T07:11:14;1.58;;;0.70;;
73266;SDS011;61495;53.400;7.608;2022-12-08T07:13:40;1.83;;;0.90;;
73266;SDS011;61495;53.400;7.608;2022-12-08T07:16:08;2.58;;;1.05;;
73266;SDS011;61495;53.400;7.608;2022-12-08T07:18:35;1.67;;;0.73;;
73266;SDS011;61495;53.400;7.608;2022-12-08T07:21:03;2.03;;;0.82;;
73266;SDS011;61495;53.400;7.608;2022-12-08T07:23:30;3.22;;;0.85;;
73266;SDS011;61495;53.400;7.608;2022-12-08T07:25:58;2.90;;;1.02;;
73266;SDS011;61495;53.400;7.608;2022-12-08T07:28:24;3.80;;;1.15;;
73266;SDS011;61495;53.400;7.608;2022-12-08T07:30:49;1.67;;;0.77;;
73266;SDS011;61495;53.400;7.608;2022-12-08T07:33:15;4.38;;;1.15;;
73266;SDS011;61495;53.400;7.608;2022-12-08T07:35:40;2.00;;;0.90;;
73266;SDS011;61495;53.400;7.608;2022-12-08T07:38:08;2.83;;;1.10;;
73266;SDS011;61495;53.400;7.608;2022-12-08T07:40:34;1.65;;;0.82;;
73266;SDS011;61495;53.400;7.608;2022-12-08T07:43:00;1.73;;;0.77;;
73266;SDS011;61495;53.400;7.608;2022-12-08T07:45:26;3.00;;;1.02;;
73266;SDS011;61495;53.400;7.608;2022-12-08T07:47:51;1.50;;;0.70;;
73266;SDS011;61495;53.400;7.608;2022-12-08T07:50:16;1.95;;;0.93;;
73266;SDS011;61495;53.400;7.608;2022-12-08T07:52:42;2.28;;;0.75;;
73266;SDS011;61495;53.400;7.608;2022-12-08T07:55:07;2.10;;;1.00;;
73266;SDS011;61495;53.400;7.608;2022-12-08T07:57:33;3.17;;;0.73;;
73266;SDS011;61495;53.400;7.608;2022-12-08T07:59:58;1.92;;;0.77;;
73266;SDS011;61495;53.400;7.608;2022-12-08T08:02:24;3.03;;;0.75;;
73266;SDS011;61495;53.400;7.608;2022-12-08T08:04:49;2.05;;;0.47;;
73266;SDS011;61495;53.400;7.608;2022-12-08T08:07:15;6.07;;;0.90;;
73266;SDS011;61495;53.400;7.608;2022-12-08T08:09:40;1.40;;;0.60;;
73266;SDS011;61495;53.400;7.608;2022-12-08T08:12:06;1.42;;;0.57;;
73266;SDS011;61495;53.400;7.608;2022-12-08T08:14:31;1.67;;;0.70;;
73266;SDS011;61495;53.400;7.608;2022-12-08T08:16:56;2.28;;;0.70;;
73266;SDS011;61495;53.400;7.608;2022-12-08T08:19:22;2.30;;;0.75;;
73266;SDS011;61495;53.400;7.608;2022-12-08T08:24:13;1.87;;;1.00;;
73266;SDS011;61495;53.400;7.608;2022-12-08T08:26:38;4.95;;;1.48;;
73266;SDS011;61495;53.400;7.608;2022-12-08T08:29:03;4.47;;;1.23;;
73266;SDS011;61495;53.400;7.608;2022-12-08T08:31:29;2.47;;;1.00;;
73266;SDS011;61495;53.400;7.608;2022-12-08T08:33:55;3.67;;;1.50;;
73266;SDS011;61495;53.400;7.608;2022-12-08T08:36:21;3.13;;;1.20;;
73266;SDS011;61495;53.400;7.608;2022-12-08T08:41:11;3.40;;;1.20;;
73266;SDS011;61495;53.400;7.608;2022-12-08T08:43:37;2.53;;;1.23;;
73266;SDS011;61495;53.400;7.608;2022-12-08T08:46:04;2.55;;;0.82;;
73266;SDS011;61495;53.400;7.608;2022-12-08T08:48:30;2.72;;;1.10;;
73266;SDS011;61495;53.400;7.608;2022-12-08T08:53:22;4.07;;;1.58;;
73266;SDS011;61495;53.400;7.608;2022-12-08T08:55:48;3.63;;;1.15;;
73266;SDS011;61495;53.400;7.608;2022-12-08T08:58:14;2.97;;;1.00;;
73266;SDS011;61495;53.400;7.608;2022-12-08T09:03:05;3.75;;;1.23;;
73266;SDS011;61495;53.400;7.608;2022-12-08T09:07:56;1.80;;;0.83;;
73266;SDS011;61495;53.400;7.608;2022-12-08T09:12:47;3.43;;;0.90;;
73266;SDS011;61495;53.400;7.608;2022-12-08T09:15:12;1.55;;;0.73;;
73266;SDS011;61495;53.400;7.608;2022-12-08T09:17:37;2.08;;;0.70;;
73266;SDS011;61495;53.400;7.608;2022-12-08T09:20:04;2.38;;;0.85;;
73266;SDS011;61495;53.400;7.608;2022-12-08T09:22:32;1.73;;;0.73;;
73266;SDS011;61495;53.400;7.608;2022-12-08T09:24:57;3.30;;;0.82;;
73266;SDS011;61495;53.400;7.608;2022-12-08T09:27:22;3.58;;;1.60;;
73266;SDS011;61495;53.400;7.608;2022-12-08T09:29:48;4.38;;;1.10;;
73266;SDS011;61495;53.400;7.608;2022-12-08T09:32:13;2.55;;;1.00;;
73266;SDS011;61495;53.400;7.608;2022-12-08T09:34:39;3.35;;;1.10;;
73266;SDS011;61495;53.400;7.608;2022-12-08T09:37:04;2.35;;;1.00;;
73266;SDS011;61495;53.400;7.608;2022-12-08T09:39:30;2.50;;;0.90;;
73266;SDS011;61495;53.400;7.608;2022-12-08T09:47:24;2.15;;;0.90;;
73266;SDS011;61495;53.400;7.608;2022-12-08T09:50:45;1.55;;;0.88;;
73266;SDS011;61495;53.400;7.608;2022-12-08T10:00:49;3.30;;;1.10;;
73266;SDS011;61495;53.400;7.608;2022-12-08T10:03:15;5.45;;;1.15;;
73266;SDS011;61495;53.400;7.608;2022-12-08T10:05:43;2.20;;;0.80;;
73266;SDS011;61495;53.400;7.608;2022-12-08T10:08:18;1.58;;;0.52;;
73266;SDS011;61495;53.400;7.608;2022-12-08T10:10:53;2.28;;;0.80;;
73266;SDS011;61495;53.400;7.608;2022-12-08T10:19:00;5.10;;;1.27;;
73266;SDS011;61495;53.400;7.608;2022-12-08T10:21:35;1.20;;;0.57;;
73266;SDS011;61495;53.400;7.608;2022-12-08T10:26:33;1.67;;;0.63;;
73266;SDS011;61495;53.400;7.608;2022-12-08T10:29:01;2.83;;;0.80;;
73266;SDS011;61495;53.400;7.608;2022-12-08T10:31:28;2.22;;;0.95;;
73266;SDS011;61495;53.400;7.608;2022-12-08T10:33:58;2.70;;;0.80;;
73266;SDS011;61495;53.400;7.608;2022-12-08T10:36:43;3.17;;;0.82;;
73266;SDS011;61495;53.400;7.608;2022-12-08T10:39:36;4.05;;;1.27;;
73266;SDS011;61495;53.400;7.608;2022-12-08T10:42:08;3.05;;;1.50;;
73266;SDS011;61495;53.400;7.608;2022-12-08T10:47:25;3.03;;;1.08;;
73266;SDS011;61495;53.400;7.608;2022-12-08T10:52:40;5.97;;;1.67;;
73266;SDS011;61495;53.400;7.608;2022-12-08T10:55:15;5.93;;;1.83;;
73266;SDS011;61495;53.400;7.608;2022-12-08T10:57:42;4.90;;;1.85;;
73266;SDS011;61495;53.400;7.608;2022-12-08T11:00:11;5.38;;;1.80;;
73266;SDS011;61495;53.400;7.608;2022-12-08T11:02:48;4.43;;;2.13;;
73266;SDS011;61495;53.400;7.608;2022-12-08T11:05:21;4.30;;;2.00;;
73266;SDS011;61495;53.400;7.608;2022-12-08T11:07:49;5.88;;;2.85;;
73266;SDS011;61495;53.400;7.608;2022-12-08T11:10:16;8.82;;;3.13;;
73266;SDS011;61495;53.400;7.608;2022-12-08T11:12:43;5.68;;;2.20;;
73266;SDS011;61495;53.400;7.608;2022-12-08T11:15:13;9.50;;;2.67;;
73266;SDS011;61495;53.400;7.608;2022-12-08T11:17:41;5.35;;;2.55;;
73266;SDS011;61495;53.400;7.608;2022-12-08T11:22:38;3.70;;;1.70;;
73266;SDS011;61495;53.400;7.608;2022-12-08T11:27:31;7.78;;;2.20;;
73266;SDS011;61495;53.400;7.608;2022-12-08T11:29:59;5.68;;;1.80;;
73266;SDS011;61495;53.400;7.608;2022-12-08T11:32:25;5.38;;;1.75;;
73266;SDS011;61495;53.400;7.608;2022-12-08T11:39:54;6.57;;;2.10;;
73266;SDS011;61495;53.400;7.608;2022-12-08T11:42:23;5.70;;;1.90;;
73266;SDS011;61495;53.400;7.608;2022-12-08T11:44:58;5.18;;;2.42;;
73266;SDS011;61495;53.400;7.608;2022-12-08T11:47:38;6.43;;;2.35;;
73266;SDS011;61495;53.400;7.608;2022-12-08T11:50:26;5.78;;;2.85;;
73266;SDS011;61495;53.400;7.608;2022-12-08T11:55:41;3.03;;;1.70;;
73266;SDS011;61495;53.400;7.608;2022-12-08T12:00:35;4.72;;;2.00;;
73266;SDS011;61495;53.400;7.608;2022-12-08T12:03:03;4.93;;;1.95;;
73266;SDS011;61495;53.400;7.608;2022-12-08T12:18:57;3.90;;;1.50;;
73266;SDS011;61495;53.400;7.608;2022-12-08T12:24:19;4.43;;;1.73;;
73266;SDS011;61495;53.400;7.608;2022-12-08T12:26:59;4.80;;;1.60;;
73266;SDS011;61495;53.400;7.608;2022-12-08T12:29:59;3.28;;;1.50;;
73266;SDS011;61495;53.400;7.608;2022-12-08T12:32:26;3.33;;;1.13;;
73266;SDS011;61495;53.400;7.608;2022-12-08T12:35:14;3.45;;;1.33;;
73266;SDS011;61495;53.400;7.608;2022-12-08T12:37:45;4.03;;;1.13;;
73266;SDS011;61495;53.400;7.608;2022-12-08T12:40:17;2.28;;;0.93;;
73266;SDS011;61495;53.400;7.608;2022-12-08T12:42:47;3.92;;;1.02;;
73266;SDS011;61495;53.400;7.608;2022-12-08T12:45:34;2.35;;;1.13;;
73266;SDS011;61495;53.400;7.608;2022-12-08T12:55:24;1.83;;;0.88;;
73266;SDS011;61495;53.400;7.608;2022-12-08T12:57:55;1.40;;;0.50;;
73266;SDS011;61495;53.400;7.608;2022-12-08T13:00:23;2.42;;;0.70;;
73266;SDS011;61495;53.400;7.608;2022-12-08T13:02:51;2.42;;;0.47;;
73266;SDS011;61495;53.400;7.608;2022-12-08T13:05:19;1.50;;;0.70;;
73266;SDS011;61495;53.400;7.608;2022-12-08T13:10:23;1.50;;;0.50;;
73266;SDS011;61495;53.400;7.608;2022-12-08T13:20:52;2.38;;;0.68;;
73266;SDS011;61495;53.400;7.608;2022-12-08T13:23:26;2.35;;;0.75;;
73266;SDS011;61495;53.400;7.608;2022-12-08T13:34:18;1.45;;;0.70;;
73266;SDS011;61495;53.400;7.608;2022-12-08T13:36:56;3.80;;;1.10;;
73266;SDS011;61495;53.400;7.608;2022-12-08T13:39:38;2.38;;;0.90;;
73266;SDS011;61495;53.400;7.608;2022-12-08T13:42:28;3.28;;;1.23;;
73266;SDS011;61495;53.400;7.608;2022-12-08T13:47:36;1.65;;;0.73;;
73266;SDS011;61495;53.400;7.608;2022-12-08T13:50:13;4.18;;;0.90;;
73266;SDS011;61495;53.400;7.608;2022-12-08T13:52:51;2.13;;;0.80;;
73266;SDS011;61495;53.400;7.608;2022-12-08T13:55:24;1.60;;;0.63;;
73266;SDS011;61495;53.400;7.608;2022-12-08T13:57:53;1.48;;;0.73;;
73266;SDS011;61495;53.400;7.608;2022-12-08T14:00:20;1.23;;;0.57;;
73266;SDS011;61495;53.400;7.608;2022-12-08T14:02:48;2.85;;;1.33;;
73266;SDS011;61495;53.400;7.608;2022-12-08T14:05:16;2.70;;;0.80;;
73266;SDS011;61495;53.400;7.608;2022-12-08T14:07:43;2.35;;;0.80;;
73266;SDS011;61495;53.400;7.608;2022-12-08T14:10:18;2.17;;;0.98;;
73266;SDS011;61495;53.400;7.608;2022-12-08T14:12:50;1.60;;;0.77;;
73266;SDS011;61495;53.400;7.608;2022-12-08T14:15:20;2.05;;;0.77;;
73266;SDS011;61495;53.400;7.608;2022-12-08T14:17:54;2.92;;;1.45;;
73266;SDS011;61495;53.400;7.608;2022-12-08T14:20:24;2.08;;;0.90;;
73266;SDS011;61495;53.400;7.608;2022-12-08T14:22:57;3.00;;;0.63;;
73266;SDS011;61495;53.400;7.608;2022-12-08T14:25:24;1.17;;;0.60;;
73266;SDS011;61495;53.400;7.608;2022-12-08T14:27:58;4.65;;;0.95;;
73266;SDS011;61495;53.400;7.608;2022-12-08T14:30:31;1.67;;;0.75;;
73266;SDS011;61495;53.400;7.608;2022-12-08T14:32:58;3.97;;;0.80;;
73266;SDS011;61495;53.400;7.608;2022-12-08T14:35:32;1.80;;;0.60;;
73266;SDS011;61495;53.400;7.608;2022-12-08T14:38:00;2.05;;;0.73;;
73266;SDS011;61495;53.400;7.608;2022-12-08T14:53:22;2.53;;;0.80;;
73266;SDS011;61495;53.400;7.608;2022-12-08T14:55:48;1.38;;;0.43;;
73266;SDS011;61495;53.400;7.608;2022-12-08T14:58:18;1.95;;;0.73;;
73266;SDS011;61495;53.400;7.608;2022-12-08T15:00:48;2.75;;;0.55;;
73266;SDS011;61495;53.400;7.608;2022-12-08T15:03:16;3.15;;;0.50;;
73266;SDS011;61495;53.400;7.608;2022-12-08T15:05:50;3.47;;;0.57;;
73266;SDS011;61495;53.400;7.608;2022-12-08T15:10:42;2.58;;;0.93;;
73266;SDS011;61495;53.400;7.608;2022-12-08T15:15:44;1.70;;;0.63;;
73266;SDS011;61495;53.400;7.608;2022-12-08T15:18:30;2.60;;;0.80;;
73266;SDS011;61495;53.400;7.608;2022-12-08T15:21:05;2.20;;;0.63;;
73266;SDS011;61495;53.400;7.608;2022-12-08T15:23:38;1.73;;;0.98;;
73266;SDS011;61495;53.400;7.608;2022-12-08T15:26:09;2.20;;;0.80;;
73266;SDS011;61495;53.400;7.608;2022-12-08T15:28:44;1.73;;;0.88;;
73266;SDS011;61495;53.400;7.608;2022-12-08T15:31:09;2.38;;;0.95;;
73266;SDS011;61495;53.400;7.608;2022-12-08T15:33:35;2.78;;;1.25;;
73266;SDS011;61495;53.400;7.608;2022-12-08T15:36:01;2.05;;;1.00;;
73266;SDS011;61495;53.400;7.608;2022-12-08T15:38:27;2.13;;;0.90;;
73266;SDS011;61495;53.400;7.608;2022-12-08T15:40:54;5.00;;;0.90;;
73266;SDS011;61495;53.400;7.608;2022-12-08T15:43:22;2.75;;;0.85;;
73266;SDS011;61495;53.400;7.608;2022-12-08T15:45:48;4.65;;;1.13;;
73266;SDS011;61495;53.400;7.608;2022-12-08T15:48:15;2.95;;;1.13;;
73266;SDS011;61495;53.400;7.608;2022-12-08T15:50:43;4.00;;;1.13;;
73266;SDS011;61495;53.400;7.608;2022-12-08T15:53:09;2.25;;;0.90;;
73266;SDS011;61495;53.400;7.608;2022-12-08T15:55:35;3.17;;;0.90;;
73266;SDS011;61495;53.400;7.608;2022-12-08T15:58:01;3.42;;;1.02;;
73266;SDS011;61495;53.400;7.608;2022-12-08T16:00:30;1.58;;;0.93;;
73266;SDS011;61495;53.400;7.608;2022-12-08T16:02:58;3.70;;;1.20;;
73266;SDS011;61495;53.400;7.608;2022-12-08T16:05:26;2.45;;;1.23;;
73266;SDS011;61495;53.400;7.608;2022-12-08T16:07:53;3.63;;;1.30;;
73266;SDS011;61495;53.400;7.608;2022-12-08T16:10:20;2.95;;;1.67;;
73266;SDS011;61495;53.400;7.608;2022-12-08T16:12:47;3.90;;;1.63;;
73266;SDS011;61495;53.400;7.608;2022-12-08T16:15:35;4.43;;;1.70;;
73266;SDS011;61495;53.400;7.608;2022-12-08T16:20:29;4.72;;;2.00;;
73266;SDS011;61495;53.400;7.608;2022-12-08T16:22:55;5.75;;;1.80;;
73266;SDS011;61495;53.400;7.608;2022-12-08T16:25:20;6.45;;;2.20;;
73266;SDS011;61495;53.400;7.608;2022-12-08T16:27:50;4.65;;;1.92;;
73266;SDS011;61495;53.400;7.608;2022-12-08T16:30:17;6.45;;;2.33;;
73266;SDS011;61495;53.400;7.608;2022-12-08T16:32:43;4.25;;;1.92;;
73266;SDS011;61495;53.400;7.608;2022-12-08T16:35:12;4.45;;;2.22;;
73266;SDS011;61495;53.400;7.608;2022-12-08T16:37:38;4.28;;;2.00;;
73266;SDS011;61495;53.400;7.608;2022-12-08T16:40:04;4.13;;;2.08;;
73266;SDS011;61495;53.400;7.608;2022-12-08T16:42:31;5.03;;;2.20;;
73266;SDS011;61495;53.400;7.608;2022-12-08T16:47:59;5.07;;;2.10;;
73266;SDS011;61495;53.400;7.608;2022-12-08T16:50:25;4.05;;;2.30;;
73266;SDS011;61495;53.400;7.608;2022-12-08T16:52:55;6.15;;;2.20;;
73266;SDS011;61495;53.400;7.608;2022-12-08T16:55:22;4.70;;;1.88;;
73266;SDS011;61495;53.400;7.608;2022-12-08T16:57:48;4.88;;;2.10;;
73266;SDS011;61495;53.400;7.608;2022-12-08T17:00:15;3.95;;;2.03;;
73266;SDS011;61495;53.400;7.608;2022-12-08T17:02:43;5.35;;;2.53;;
73266;SDS011;61495;53.400;7.608;2022-12-08T17:05:09;5.35;;;2.22;;
73266;SDS011;61495;53.400;7.608;2022-12-08T17:07:38;5.00;;;2.63;;
73266;SDS011;61495;53.400;7.608;2022-12-08T17:10:05;6.15;;;2.85;;
73266;SDS011;61495;53.400;7.608;2022-12-08T17:12:32;5.35;;;2.60;;
73266;SDS011;61495;53.400;7.608;2022-12-08T17:15:00;6.28;;;2.83;;
73266;SDS011;61495;53.400;7.608;2022-12-08T17:17:27;5.25;;;3.05;;
73266;SDS011;61495;53.400;7.608;2022-12-08T17:19:53;5.72;;;2.78;;
73266;SDS011;61495;53.400;7.608;2022-12-08T17:22:19;6.65;;;3.28;;
73266;SDS011;61495;53.400;7.608;2022-12-08T17:24:44;8.82;;;3.80;;
73266;SDS011;61495;53.400;7.608;2022-12-08T17:27:09;6.20;;;3.67;;
73266;SDS011;61495;53.400;7.608;2022-12-08T17:32:57;5.53;;;3.10;;
73266;SDS011;61495;53.400;7.608;2022-12-08T17:35:22;6.05;;;3.15;;
73266;SDS011;61495;53.400;7.608;2022-12-08T17:37:48;7.97;;;3.53;;
73266;SDS011;61495;53.400;7.608;2022-12-08T17:40:13;6.97;;;3.30;;
73266;SDS011;61495;53.400;7.608;2022-12-08T17:42:38;6.60;;;3.33;;